Time;durP1;ratioP1;P1;durP2;ratioP2;P2;SDS_P1;SDS_P2;PMS_P1;PMS_P2;Temp;Humidity;BMP_temperature;BMP_pressure;BME280_temperature;BME280_humidity;BME280_pressure;Samples;Min_cycle;Max_cycle;Signal;HPM_P1;HPM_P2
2022/09/10 00:01:30;;;;;;;12.23;8.00;;;23.60;82.20;;;;;;5069338;28;20226;-78
2022/09/10 00:03:59;;;;;;;13.85;7.93;;;23.50;82.30;;;;;;5064581;28;20320;-77
2022/09/10 00:06:33;;;;;;;13.45;8.23;;;23.50;82.40;;;;;;5066552;28;20202;-78
2022/09/10 00:09:01;;;;;;;13.95;7.85;;;23.50;82.50;;;;;;5062708;28;20182;-77
2022/09/10 00:11:30;;;;;;;12.40;7.90;;;23.40;82.50;;;;;;5068956;28;20187;-77
2022/09/10 00:13:59;;;;;;;12.40;8.20;;;23.40;82.70;;;;;;5068052;28;20195;-77
2022/09/10 00:16:28;;;;;;;18.90;8.82;;;23.40;82.70;;;;;;5068904;28;20641;-78
2022/09/10 00:18:57;;;;;;;11.50;8.10;;;23.40;82.80;;;;;;5064615;28;20207;-78
2022/09/10 00:21:25;;;;;;;12.80;7.95;;;23.40;83.00;;;;;;5068653;28;20190;-79
2022/09/10 00:23:55;;;;;;;14.15;8.63;;;23.30;83.10;;;;;;5068110;28;20249;-79
2022/09/10 00:26:26;;;;;;;12.70;8.20;;;23.30;83.40;;;;;;5071132;28;20226;-78
2022/09/10 00:28:57;;;;;;;10.68;7.80;;;23.30;83.60;;;;;;5065460;28;20287;-77
2022/09/10 00:31:27;;;;;;;12.25;8.75;;;23.20;83.50;;;;;;5063637;28;20315;-78
2022/09/10 00:33:55;;;;;;;11.52;8.15;;;23.20;83.60;;;;;;5067508;28;20222;-79
2022/09/10 00:36:26;;;;;;;14.18;8.48;;;23.20;83.60;;;;;;5068718;28;20246;-79
2022/09/10 00:38:58;;;;;;;14.20;8.05;;;23.20;83.60;;;;;;5066364;28;20190;-80
2022/09/10 00:41:28;;;;;;;12.32;8.43;;;23.20;83.90;;;;;;5065415;28;20624;-79
2022/09/10 00:43:58;;;;;;;10.15;7.97;;;23.10;83.90;;;;;;5057447;28;20662;-79
2022/09/10 00:46:38;;;;;;;16.63;8.07;;;23.10;84.10;;;;;;5052741;28;20279;-80
2022/09/10 00:49:14;;;;;;;13.05;7.75;;;23.10;84.20;;;;;;5069461;28;20335;-79
2022/09/10 00:51:45;;;;;;;12.90;6.85;;;23.10;84.20;;;;;;5067470;28;20213;-79
2022/09/10 00:54:17;;;;;;;17.33;7.55;;;23.10;84.20;;;;;;5063746;28;20191;-79
2022/09/10 00:56:46;;;;;;;13.40;7.00;;;23.10;84.20;;;;;;5066764;28;20301;-79
2022/09/10 00:59:17;;;;;;;14.65;7.57;;;23.10;84.20;;;;;;5066279;28;20186;-80
2022/09/10 01:01:46;;;;;;;10.30;6.63;;;23.00;84.20;;;;;;5062983;28;20187;-79
2022/09/10 01:04:14;;;;;;;9.82;7.00;;;23.00;84.20;;;;;;5068149;28;20450;-79
2022/09/10 01:06:44;;;;;;;10.95;6.22;;;23.00;85.50;;;;;;5064273;28;20191;-79
2022/09/10 01:09:15;;;;;;;8.45;5.45;;;23.00;85.20;;;;;;5066686;28;20619;-78
2022/09/10 01:11:57;;;;;;;7.53;4.70;;;23.00;85.30;;;;;;5064253;28;20186;-79
2022/09/10 01:14:45;;;;;;;8.90;4.85;;;23.00;85.50;;;;;;5066169;28;20273;-79
2022/09/10 01:17:24;;;;;;;6.97;3.78;;;22.90;85.50;;;;;;5062338;28;20261;-79
2022/09/10 01:20:25;;;;;;;5.90;4.13;;;22.90;85.30;;;;;;5066544;28;20642;-79
2022/09/10 01:23:16;;;;;;;7.03;4.50;;;22.90;85.20;;;;;;5064494;28;20653;-80
2022/09/10 01:26:02;;;;;;;6.10;4.00;;;22.90;85.20;;;;;;5064784;28;20702;-79
2022/09/10 01:28:39;;;;;;;6.13;3.85;;;22.90;85.40;;;;;;5069067;28;20218;-80
2022/09/10 01:31:11;;;;;;;10.35;3.70;;;22.80;85.80;;;;;;5063935;28;20531;-78
2022/09/10 01:33:45;;;;;;;8.10;3.90;;;22.80;85.80;;;;;;5066235;28;20190;-79
2022/09/10 01:36:19;;;;;;;7.07;3.83;;;22.80;86.10;;;;;;5060576;28;20259;-78
2022/09/10 01:38:48;;;;;;;8.93;3.58;;;22.80;85.90;;;;;;5066242;28;20269;-79
2022/09/10 01:41:17;;;;;;;6.15;3.47;;;22.80;85.80;;;;;;5067435;28;20202;-79
2022/09/10 01:43:47;;;;;;;5.65;3.70;;;22.70;85.90;;;;;;5067469;28;20191;-78
2022/09/10 01:46:27;;;;;;;6.28;3.30;;;22.70;86.00;;;;;;5065972;28;20191;-78
2022/09/10 01:49:20;;;;;;;7.20;3.40;;;22.70;86.30;;;;;;5068902;28;20222;-77
2022/09/10 01:52:14;;;;;;;6.82;3.08;;;22.70;86.70;;;;;;5059131;28;20198;-78
2022/09/10 01:54:50;;;;;;;6.22;3.70;;;22.70;86.90;;;;;;5061355;28;20218;-77
2022/09/10 01:57:32;;;;;;;4.30;2.80;;;22.70;86.90;;;;;;5069128;28;20747;-77
2022/09/10 02:00:08;;;;;;;7.78;3.17;;;22.60;87.20;;;;;;5063463;28;20239;-76
2022/09/10 02:02:41;;;;;;;5.88;3.33;;;22.60;87.70;;;;;;5063394;28;20247;-78
2022/09/10 02:05:11;;;;;;;4.97;2.55;;;22.60;87.80;;;;;;5067038;28;20292;-77
2022/09/10 02:07:39;;;;;;;3.88;2.85;;;22.60;88.00;;;;;;5068948;28;20233;-78
2022/09/10 02:10:10;;;;;;;8.05;3.22;;;22.60;88.40;;;;;;5066704;28;20195;-77
2022/09/10 02:12:38;;;;;;;6.15;2.70;;;22.60;88.40;;;;;;5068674;28;20190;-77
2022/09/10 02:15:10;;;;;;;5.18;2.95;;;22.50;88.90;;;;;;5066269;28;20202;-77
2022/09/10 02:17:39;;;;;;;7.25;3.08;;;22.50;88.90;;;;;;5067019;28;20211;-77
2022/09/10 02:20:12;;;;;;;6.40;3.53;;;22.50;89.00;;;;;;5068979;28;20215;-76
2022/09/10 02:22:45;;;;;;;5.25;2.47;;;22.50;89.20;;;;;;5065461;28;20191;-76
2022/09/10 02:25:15;;;;;;;3.88;2.40;;;22.50;89.70;;;;;;5069660;28;20222;-78
2022/09/10 02:27:43;;;;;;;4.20;3.00;;;22.50;89.50;;;;;;5059687;28;20450;-78
2022/09/10 02:30:13;;;;;;;4.35;2.60;;;22.50;89.50;;;;;;5063627;28;20266;-78
2022/09/10 02:32:41;;;;;;;3.63;2.85;;;22.50;89.40;;;;;;5067565;28;20233;-78
2022/09/10 02:35:10;;;;;;;5.80;2.67;;;22.50;89.50;;;;;;5066087;28;20244;-78
2022/09/10 02:37:38;;;;;;;3.55;2.50;;;22.50;89.50;;;;;;5064942;28;20690;-77
2022/09/10 02:40:07;;;;;;;5.80;2.67;;;22.50;89.60;;;;;;5067143;28;20233;-78
2022/09/10 02:42:37;;;;;;;5.07;2.75;;;22.50;89.80;;;;;;5065097;28;20226;-78
2022/09/10 02:45:07;;;;;;;5.80;2.63;;;22.50;90.10;;;;;;5061047;28;20198;-78
2022/09/10 02:47:36;;;;;;;4.93;2.58;;;22.50;90.10;;;;;;5060773;28;20198;-77
2022/09/10 02:50:06;;;;;;;4.07;2.33;;;22.50;90.30;;;;;;5061374;28;20236;-77
2022/09/10 02:52:34;;;;;;;6.40;3.10;;;22.50;90.50;;;;;;5062502;28;20330;-78
2022/09/10 02:55:04;;;;;;;4.25;2.80;;;22.40;90.50;;;;;;5062667;28;20244;-78
2022/09/10 02:57:32;;;;;;;4.53;2.95;;;22.40;90.60;;;;;;5063426;28;20310;-77
2022/09/10 03:00:01;;;;;;;4.88;2.90;;;22.40;90.70;;;;;;5068430;28;20243;-77
2022/09/10 03:02:29;;;;;;;7.63;2.80;;;22.40;90.80;;;;;;5068886;28;20205;-79
2022/09/10 03:04:59;;;;;;;3.70;2.55;;;22.40;90.90;;;;;;5066489;28;20194;-77
2022/09/10 03:07:27;;;;;;;3.97;3.00;;;22.40;91.10;;;;;;5068177;28;20190;-79
2022/09/10 03:09:56;;;;;;;4.63;2.78;;;22.40;91.00;;;;;;5071847;28;20226;-78
2022/09/10 03:12:24;;;;;;;4.13;2.92;;;22.40;91.20;;;;;;5069253;28;20530;-78
2022/09/10 03:14:52;;;;;;;5.60;2.47;;;22.40;91.20;;;;;;5067189;28;20285;-77
2022/09/10 03:17:21;;;;;;;3.85;2.67;;;22.40;91.30;;;;;;5068484;28;20226;-78
2022/09/10 03:19:49;;;;;;;5.18;2.47;;;22.40;91.20;;;;;;5068745;28;20190;-77
2022/09/10 03:22:19;;;;;;;4.95;2.65;;;22.40;91.20;;;;;;5069437;28;20186;-78
2022/09/10 03:24:47;;;;;;;6.20;3.22;;;22.40;91.40;;;;;;5072538;28;20259;-78
2022/09/10 03:27:16;;;;;;;4.35;2.70;;;22.40;91.20;;;;;;5065398;28;20279;-77
2022/09/10 03:29:44;;;;;;;7.28;2.80;;;22.40;91.30;;;;;;5067821;28;20190;-78
2022/09/10 03:32:12;;;;;;;4.40;2.65;;;22.40;91.30;;;;;;5068476;28;20214;-78
2022/09/10 03:34:40;;;;;;;8.30;2.97;;;22.40;91.20;;;;;;5066605;28;20213;-78
2022/09/10 03:37:09;;;;;;;6.03;2.95;;;22.40;91.20;;;;;;5068786;28;20211;-78
2022/09/10 03:39:38;;;;;;;4.70;2.97;;;22.50;91.20;;;;;;5071841;28;20182;-78
2022/09/10 03:42:07;;;;;;;5.75;2.90;;;22.50;91.20;;;;;;5069321;28;20686;-77
2022/09/10 03:44:35;;;;;;;5.40;3.22;;;22.50;91.20;;;;;;5064684;28;20208;-78
2022/09/10 03:47:04;;;;;;;5.18;3.00;;;22.50;91.30;;;;;;5068231;28;20256;-77
2022/09/10 03:49:32;;;;;;;3.90;2.67;;;22.50;91.30;;;;;;5065447;28;20191;-78
2022/09/10 03:52:01;;;;;;;7.03;2.97;;;22.50;91.40;;;;;;5069719;28;20202;-79
2022/09/10 03:54:29;;;;;;;5.45;2.78;;;22.50;91.70;;;;;;5068872;28;20191;-78
2022/09/10 03:57:02;;;;;;;5.22;3.78;;;22.50;91.60;;;;;;5071443;28;20258;-78
2022/09/10 03:59:30;;;;;;;8.63;4.55;;;22.50;91.70;;;;;;5068721;28;20218;-78
2022/09/10 04:01:59;;;;;;;5.90;4.00;;;22.50;91.80;;;;;;5067560;28;20194;-78
2022/09/10 04:04:28;;;;;;;11.27;4.70;;;22.50;91.70;;;;;;5068699;28;20440;-77
2022/09/10 04:06:56;;;;;;;7.15;4.07;;;22.50;92.10;;;;;;5069195;28;20190;-77
2022/09/10 04:09:24;;;;;;;6.60;4.30;;;22.50;92.00;;;;;;5067997;28;20286;-78
2022/09/10 04:11:53;;;;;;;6.10;3.17;;;22.50;92.00;;;;;;5070310;28;20237;-78
2022/09/10 04:14:22;;;;;;;6.70;3.47;;;22.50;92.10;;;;;;5067915;28;20233;-78
2022/09/10 04:16:51;;;;;;;7.35;3.67;;;22.50;92.20;;;;;;5071032;28;20711;-77
2022/09/10 04:19:19;;;;;;;5.07;3.08;;;22.50;92.40;;;;;;5062728;28;20201;-79
2022/09/10 04:21:47;;;;;;;4.85;3.40;;;22.50;92.20;;;;;;5063689;28;20194;-77
2022/09/10 04:24:16;;;;;;;6.22;3.60;;;22.50;92.20;;;;;;5067323;28;20232;-76
2022/09/10 04:26:44;;;;;;;5.07;3.03;;;22.50;92.40;;;;;;5069449;28;20236;-78
2022/09/10 04:29:13;;;;;;;5.53;2.85;;;22.60;92.50;;;;;;5062279;28;20325;-77
2022/09/10 04:31:45;;;;;;;7.97;3.85;;;22.60;92.60;;;;;;5069731;28;20190;-78
2022/09/10 04:34:14;;;;;;;5.22;3.00;;;22.60;92.60;;;;;;5064838;28;20273;-78
2022/09/10 04:36:43;;;;;;;6.40;3.35;;;22.60;92.60;;;;;;5065851;28;20218;-77
2022/09/10 04:39:13;;;;;;;5.30;3.13;;;22.50;92.70;;;;;;5067982;28;20193;-77
2022/09/10 04:41:41;;;;;;;5.38;3.53;;;22.60;92.80;;;;;;5066944;28;20278;-77
2022/09/10 04:44:10;;;;;;;5.00;3.15;;;22.60;93.00;;;;;;5058945;28;20222;-77
2022/09/10 04:46:38;;;;;;;4.93;3.30;;;22.60;93.00;;;;;;5061039;28;20623;-78
2022/09/10 04:49:08;;;;;;;7.07;3.42;;;22.60;93.00;;;;;;5068156;28;20268;-77
2022/09/10 04:51:36;;;;;;;7.95;3.53;;;22.70;93.10;;;;;;5064434;28;20240;-78
2022/09/10 04:54:05;;;;;;;8.23;3.50;;;22.60;92.90;;;;;;5058956;28;20186;-78
2022/09/10 04:56:33;;;;;;;8.68;3.67;;;22.70;92.90;;;;;;5068524;28;20222;-78
2022/09/10 04:59:02;;;;;;;6.13;3.72;;;22.70;92.80;;;;;;5067978;28;20324;-78
2022/09/10 05:01:30;;;;;;;5.50;3.42;;;22.70;92.80;;;;;;5067441;28;20190;-77
2022/09/10 05:03:58;;;;;;;5.47;3.13;;;22.80;92.70;;;;;;5067694;28;20658;-77
2022/09/10 05:06:28;;;;;;;6.70;3.35;;;22.80;92.70;;;;;;5062892;28;20314;-77
2022/09/10 05:08:56;;;;;;;7.80;3.45;;;22.80;92.80;;;;;;5062623;28;20194;-77
2022/09/10 05:11:25;;;;;;;7.50;3.03;;;22.80;92.80;;;;;;5066659;28;20529;-77
2022/09/10 05:13:53;;;;;;;4.72;3.10;;;22.80;93.10;;;;;;5068445;28;20195;-77
2022/09/10 05:16:21;;;;;;;7.97;3.42;;;22.90;93.30;;;;;;5060898;28;20639;-77
2022/09/10 05:18:50;;;;;;;5.57;3.42;;;22.90;93.40;;;;;;5068059;28;20214;-77
2022/09/10 05:21:18;;;;;;;8.63;3.88;;;22.90;93.50;;;;;;5067985;28;20719;-78
2022/09/10 05:23:48;;;;;;;8.63;3.63;;;22.90;93.50;;;;;;5066715;28;20531;-80
2022/09/10 05:26:16;;;;;;;5.85;3.20;;;23.00;93.50;;;;;;5068825;28;20578;-79
2022/09/10 05:28:45;;;;;;;7.13;3.15;;;23.00;93.50;;;;;;5069754;28;20594;-79
2022/09/10 05:31:13;;;;;;;5.95;3.72;;;23.10;93.40;;;;;;5066778;28;20252;-81
2022/09/10 05:33:41;;;;;;;5.95;3.40;;;23.10;93.30;;;;;;5068655;28;20240;-77
2022/09/10 05:36:10;;;;;;;9.63;3.70;;;23.20;93.20;;;;;;5076354;28;20202;-77
2022/09/10 05:38:41;;;;;;;6.47;3.80;;;23.20;93.10;;;;;;5067963;28;20206;-78
2022/09/10 05:41:11;;;;;;;8.40;3.83;;;23.20;93.10;;;;;;5064641;28;20614;-78
2022/09/10 05:43:40;;;;;;;5.40;3.30;;;23.30;93.10;;;;;;5064664;28;20202;-77
2022/09/10 05:46:09;;;;;;;6.65;3.60;;;23.40;93.10;;;;;;5061019;28;20186;-77
2022/09/10 05:48:39;;;;;;;8.27;4.38;;;23.40;93.10;;;;;;5061411;28;20757;-77
2022/09/10 05:51:09;;;;;;;5.60;3.38;;;23.50;93.10;;;;;;5064638;28;20240;-77
2022/09/10 05:53:38;;;;;;;5.63;3.20;;;23.50;93.00;;;;;;5061790;28;20216;-78
2022/09/10 05:56:06;;;;;;;4.22;3.13;;;23.60;92.90;;;;;;5062957;28;20240;-78
2022/09/10 05:58:36;;;;;;;4.75;2.90;;;23.60;92.80;;;;;;5060120;28;20763;-77
2022/09/10 06:01:05;;;;;;;6.10;3.45;;;23.70;93.10;;;;;;5068442;28;20216;-77
2022/09/10 06:03:33;;;;;;;6.45;2.88;;;23.70;92.70;;;;;;5056264;28;20222;-77
2022/09/10 06:06:02;;;;;;;6.10;2.80;;;23.70;92.50;;;;;;5062659;28;20194;-77
2022/09/10 06:08:30;;;;;;;4.60;3.15;;;23.90;92.50;;;;;;5068352;28;20597;-77
2022/09/10 06:11:01;;;;;;;6.07;2.75;;;23.80;92.30;;;;;;5065774;28;20195;-79
2022/09/10 06:13:29;;;;;;;5.47;3.40;;;23.90;92.30;;;;;;5065105;28;20187;-78
2022/09/10 06:15:59;;;;;;;7.10;3.10;;;24.00;92.20;;;;;;5064780;28;20222;-78
2022/09/10 06:18:28;;;;;;;4.18;2.97;;;24.10;92.10;;;;;;5070470;28;20275;-78
2022/09/10 06:21:04;;;;;;;6.80;2.83;;;24.10;91.90;;;;;;5067633;28;20252;-78
2022/09/10 06:23:34;;;;;;;5.00;2.92;;;24.10;91.70;;;;;;5072313;28;20226;-77
2022/09/10 06:26:05;;;;;;;5.50;3.03;;;24.20;91.70;;;;;;5073826;28;20253;-79
2022/09/10 06:28:34;;;;;;;7.00;3.80;;;24.30;91.50;;;;;;5072693;28;20599;-78
2022/09/10 06:31:06;;;;;;;4.80;2.92;;;24.30;91.40;;;;;;5071598;28;20199;-77
2022/09/10 06:33:35;;;;;;;6.20;2.90;;;24.30;91.30;;;;;;5073919;28;20240;-78
2022/09/10 06:36:04;;;;;;;4.70;2.70;;;24.40;91.20;;;;;;5074781;28;20248;-78
2022/09/10 06:38:34;;;;;;;4.30;2.58;;;24.50;91.10;;;;;;5071130;28;20243;-78
2022/09/10 06:41:04;;;;;;;7.55;2.90;;;24.50;91.00;;;;;;5069262;28;20214;-78
2022/09/10 06:43:35;;;;;;;8.20;2.92;;;24.60;90.90;;;;;;5071574;28;20194;-78
2022/09/10 06:46:12;;;;;;;4.88;2.20;;;24.60;90.90;;;;;;5072604;28;20633;-77
2022/09/10 06:49:02;;;;;;;4.55;2.45;;;24.70;90.70;;;;;;5058112;28;20735;-77
2022/09/10 06:51:31;;;;;;;5.13;2.22;;;24.80;90.40;;;;;;5074827;28;20220;-78
2022/09/10 06:54:01;;;;;;;8.00;2.60;;;24.80;90.30;;;;;;5071393;28;20639;-77
2022/09/10 06:56:30;;;;;;;9.60;4.20;;;24.90;90.10;;;;;;5068041;28;20191;-77
2022/09/10 06:58:58;;;;;;;5.85;2.88;;;24.90;90.00;;;;;;5066495;28;20757;-79
2022/09/10 07:01:31;;;;;;;7.40;2.95;;;24.90;89.80;;;;;;5075736;28;20190;-77
2022/09/10 07:04:01;;;;;;;3.85;2.47;;;25.00;89.60;;;;;;5069710;28;20190;-78
2022/09/10 07:06:34;;;;;;;6.05;2.67;;;25.00;89.30;;;;;;5062802;28;20268;-79
2022/09/10 07:09:04;;;;;;;7.10;2.72;;;25.00;88.70;;;;;;5073277;28;20187;-79
2022/09/10 07:11:33;;;;;;;6.72;2.83;;;25.00;88.50;;;;;;5070989;28;20658;-82
2022/09/10 07:14:11;;;;;;;5.00;2.78;;;25.00;88.30;;;;;;5067964;28;20190;-83
2022/09/10 07:16:43;;;;;;;8.00;3.22;;;25.10;88.20;;;;;;5067520;28;20209;-81
2022/09/10 07:19:13;;;;;;;4.72;2.47;;;25.20;87.90;;;;;;5071779;28;20301;-81
2022/09/10 07:21:42;;;;;;;3.33;2.30;;;25.20;87.30;;;;;;5072808;28;20187;-83
2022/09/10 07:24:13;;;;;;;5.70;2.22;;;25.20;87.10;;;;;;5064870;28;20195;-80
2022/09/10 07:26:41;;;;;;;6.30;3.17;;;25.30;87.00;;;;;;5071633;28;20647;-80
2022/09/10 07:29:10;;;;;;;6.28;2.55;;;25.30;86.90;;;;;;5072492;28;20198;-80
2022/09/10 07:31:42;;;;;;;6.72;2.63;;;25.40;86.80;;;;;;5071666;28;20643;-81
2022/09/10 07:34:13;;;;;;;6.32;2.42;;;25.40;86.20;;;;;;5070320;28;20240;-80
2022/09/10 07:36:41;;;;;;;5.00;2.50;;;25.50;86.10;;;;;;5064825;28;20251;-81
2022/09/10 07:39:11;;;;;;;5.57;2.80;;;25.50;85.90;;;;;;5058729;28;20250;-81
2022/09/10 07:41:40;;;;;;;3.88;2.70;;;25.50;85.40;;;;;;5069686;28;20198;-81
2022/09/10 07:44:08;;;;;;;3.38;2.45;;;25.60;85.30;;;;;;5064899;28;20198;-80
2022/09/10 07:46:37;;;;;;;5.95;2.65;;;25.60;85.30;;;;;;5068164;28;20347;-80
2022/09/10 07:49:08;;;;;;;8.38;3.67;;;25.70;85.50;;;;;;5069841;28;20618;-79
2022/09/10 07:51:38;;;;;;;4.70;3.05;;;25.70;85.30;;;;;;5060795;28;20199;-80
2022/09/10 07:54:06;;;;;;;6.57;2.78;;;25.80;84.90;;;;;;5075145;28;20206;-77
2022/09/10 07:56:36;;;;;;;8.27;3.33;;;25.80;85.00;;;;;;5070897;28;20206;-79
2022/09/10 07:59:04;;;;;;;6.93;2.75;;;25.80;84.90;;;;;;5071206;28;20747;-79
2022/09/10 08:01:33;;;;;;;6.20;2.88;;;25.90;85.00;;;;;;5072459;28;20223;-79
2022/09/10 08:04:01;;;;;;;8.40;3.22;;;25.90;85.00;;;;;;5064665;28;20260;-79
2022/09/10 08:06:34;;;;;;;4.35;2.70;;;25.90;85.00;;;;;;5061649;28;20191;-80
2022/09/10 08:09:04;;;;;;;9.27;2.90;;;26.00;85.10;;;;;;5072456;28;20202;-77
2022/09/10 08:11:33;;;;;;;5.15;2.40;;;26.10;85.20;;;;;;5072104;28;20556;-80
2022/09/10 08:14:01;;;;;;;4.80;2.58;;;26.10;85.40;;;;;;5066909;28;20236;-79
2022/09/10 08:16:31;;;;;;;5.35;2.78;;;26.10;85.40;;;;;;5070067;28;20202;-82
2022/09/10 08:19:00;;;;;;;5.35;2.95;;;26.20;85.20;;;;;;5070126;28;20698;-79
2022/09/10 08:21:29;;;;;;;5.13;2.97;;;26.30;85.00;;;;;;5072383;28;20191;-80
2022/09/10 08:23:59;;;;;;;5.78;3.35;;;26.30;84.60;;;;;;5070117;28;20198;-79
2022/09/10 08:26:28;;;;;;;5.72;2.88;;;26.30;84.30;;;;;;5071363;28;20199;-79
2022/09/10 08:28:57;;;;;;;4.78;3.05;;;26.40;84.10;;;;;;5073199;28;20721;-78
2022/09/10 08:31:26;;;;;;;5.93;3.35;;;26.40;83.90;;;;;;5075191;28;20198;-78
2022/09/10 08:33:55;;;;;;;5.57;3.50;;;26.50;83.80;;;;;;5068111;28;20218;-78
2022/09/10 08:36:24;;;;;;;8.35;3.80;;;26.50;83.30;;;;;;5072093;28;20197;-80
2022/09/10 08:38:54;;;;;;;4.35;3.30;;;26.60;82.40;;;;;;5070177;28;20561;-77
2022/09/10 08:41:41;;;;;;;8.27;3.65;;;26.60;82.30;;;;;;5068919;28;20190;-76
2022/09/10 08:44:16;;;;;;;9.02;3.80;;;26.70;81.70;;;;;;5056469;28;20226;-78
2022/09/10 08:46:48;;;;;;;6.18;3.63;;;26.70;81.10;;;;;;5066986;28;20267;-80
2022/09/10 08:49:20;;;;;;;8.20;3.22;;;26.70;81.10;;;;;;5074854;28;20187;-79
2022/09/10 08:51:53;;;;;;;5.93;3.53;;;26.80;81.30;;;;;;5067475;28;20178;-76
2022/09/10 08:54:25;;;;;;;10.77;3.80;;;26.80;81.10;;;;;;5066623;28;20213;-75
2022/09/10 08:56:59;;;;;;;7.10;3.80;;;26.80;80.80;;;;;;5070246;28;20204;-78
2022/09/10 08:59:33;;;;;;;7.70;3.38;;;26.80;80.40;;;;;;5064433;28;20250;-76
2022/09/10 09:02:13;;;;;;;7.55;3.95;;;26.90;80.60;;;;;;5064069;28;20605;-76
2022/09/10 09:05:03;;;;;;;5.22;3.47;;;27.00;80.60;;;;;;5061930;28;20283;-78
2022/09/10 09:07:38;;;;;;;7.80;3.67;;;27.00;80.70;;;;;;5062741;28;20205;-77
2022/09/10 09:10:18;;;;;;;4.68;3.40;;;27.10;80.70;;;;;;5064671;28;20182;-78
2022/09/10 09:13:05;;;;;;;6.97;3.63;;;27.10;80.70;;;;;;5067615;28;20622;-80
2022/09/10 09:15:43;;;;;;;8.25;3.72;;;27.20;80.70;;;;;;5071894;28;20190;-79
2022/09/10 09:18:20;;;;;;;6.38;3.83;;;27.20;80.20;;;;;;5074035;28;20203;-79
2022/09/10 09:20:54;;;;;;;5.97;3.42;;;27.30;79.80;;;;;;5072588;28;20624;-77
2022/09/10 09:23:26;;;;;;;6.57;3.38;;;27.30;79.20;;;;;;5070368;28;20193;-77
2022/09/10 09:26:03;;;;;;;5.07;3.75;;;27.40;78.80;;;;;;5063777;28;20244;-79
2022/09/10 09:28:39;;;;;;;6.40;3.70;;;27.40;78.60;;;;;;5063934;28;20248;-79
2022/09/10 09:31:13;;;;;;;11.25;3.90;;;27.50;78.50;;;;;;5070153;28;20653;-79
2022/09/10 09:33:44;;;;;;;5.80;3.67;;;27.60;78.30;;;;;;5066494;28;20638;-78
2022/09/10 09:36:16;;;;;;;6.82;4.53;;;27.70;78.30;;;;;;5069866;28;20647;-77
2022/09/10 09:38:49;;;;;;;5.75;3.92;;;27.70;77.80;;;;;;5063351;28;20198;-79
2022/09/10 09:41:24;;;;;;;10.10;4.68;;;27.70;77.60;;;;;;5066407;28;20214;-77
2022/09/10 09:43:58;;;;;;;7.32;4.18;;;27.80;77.50;;;;;;5066673;28;20712;-80
2022/09/10 09:46:26;;;;;;;8.00;4.25;;;27.90;77.40;;;;;;5064774;28;20223;-79
2022/09/10 09:48:58;;;;;;;8.40;4.13;;;27.90;77.20;;;;;;5060652;28;20183;-80
2022/09/10 09:51:34;;;;;;;9.10;4.22;;;27.90;76.80;;;;;;5059717;28;20699;-78
2022/09/10 09:54:11;;;;;;;8.00;4.15;;;28.00;76.70;;;;;;5056264;28;20194;-77
2022/09/10 09:57:00;;;;;;;12.23;4.20;;;28.00;76.70;;;;;;5059986;28;20199;-79
2022/09/10 09:59:33;;;;;;;9.80;4.35;;;28.10;76.60;;;;;;5063819;28;20225;-79
2022/09/10 10:02:10;;;;;;;8.25;4.57;;;28.20;76.50;;;;;;5070429;28;20209;-79
2022/09/10 10:04:41;;;;;;;6.50;4.40;;;28.20;76.40;;;;;;5062102;28;20870;-77
2022/09/10 10:07:11;;;;;;;8.88;3.78;;;28.30;76.40;;;;;;5066339;28;20220;-79
2022/09/10 10:09:43;;;;;;;9.25;4.65;;;28.40;76.20;;;;;;5065373;28;20240;-77
2022/09/10 10:12:19;;;;;;;8.25;4.32;;;28.40;75.70;;;;;;5063588;28;20210;-78
2022/09/10 10:14:52;;;;;;;8.60;4.15;;;28.40;75.00;;;;;;5067546;28;20229;-79
2022/09/10 10:17:33;;;;;;;8.02;4.45;;;28.50;74.50;;;;;;5069497;28;20244;-77
2022/09/10 10:20:13;;;;;;;8.88;4.30;;;28.60;74.60;;;;;;5075582;28;20229;-77
2022/09/10 10:22:42;;;;;;;8.35;4.70;;;28.60;74.40;;;;;;5072347;28;20739;-78
2022/09/10 10:25:40;;;;;;;7.70;4.32;;;28.60;74.40;;;;;;5075032;28;20194;-76
2022/09/10 10:28:20;;;;;;;8.27;4.05;;;28.70;74.10;;;;;;4971468;28;20600;-77
2022/09/10 10:30:53;;;;;;;9.75;4.20;;;28.80;73.80;;;;;;5058878;28;20780;-77
2022/09/10 10:33:27;;;;;;;12.15;4.28;;;28.90;73.30;;;;;;5073528;28;20190;-77
2022/09/10 10:36:07;;;;;;;8.23;4.40;;;28.90;73.30;;;;;;5074887;28;20244;-77
2022/09/10 10:38:39;;;;;;;12.13;5.47;;;29.00;73.30;;;;;;5074540;28;20194;-79
2022/09/10 10:41:46;;;;;;;9.82;5.38;;;29.00;71.60;;;;;;5075872;28;20309;-77
2022/09/10 10:44:36;;;;;;;9.27;4.90;;;29.10;71.10;;;;;;5071401;28;20867;-76
2022/09/10 10:47:20;;;;;;;7.07;4.40;;;29.10;70.70;;;;;;5074095;28;20231;-76
2022/09/10 10:50:02;;;;;;;6.22;4.32;;;29.20;70.90;;;;;;5072619;28;20194;-76
2022/09/10 10:52:37;;;;;;;9.65;5.18;;;29.30;70.80;;;;;;5073589;28;20593;-75
2022/09/10 10:55:16;;;;;;;11.38;4.55;;;29.40;70.70;;;;;;5075473;28;20186;-77
2022/09/10 10:58:05;;;;;;;5.85;4.38;;;29.50;70.30;;;;;;5075480;28;20692;-77
2022/09/10 11:00:40;;;;;;;5.43;4.18;;;29.50;70.40;;;;;;5073746;28;20267;-77
2022/09/10 11:03:18;;;;;;;7.97;4.05;;;29.60;70.50;;;;;;5073568;28;20225;-77
2022/09/10 11:05:51;;;;;;;8.10;4.10;;;29.60;70.30;;;;;;5074011;28;20221;-77
2022/09/10 11:08:26;;;;;;;5.65;4.20;;;29.70;69.70;;;;;;5071610;28;20576;-77
2022/09/10 11:10:59;;;;;;;6.35;4.22;;;29.70;69.20;;;;;;5075330;28;20244;-78
2022/09/10 11:13:35;;;;;;;10.90;4.80;;;29.80;69.30;;;;;;5073868;28;20291;-77
2022/09/10 11:16:10;;;;;;;6.53;4.20;;;29.80;69.00;;;;;;5075360;28;20178;-76
2022/09/10 11:18:45;;;;;;;14.60;4.35;;;29.90;69.00;;;;;;5073699;28;20282;-76
2022/09/10 11:21:22;;;;;;;7.05;4.20;;;29.90;69.90;;;;;;5054507;28;20246;-77
2022/09/10 11:23:56;;;;;;;9.82;5.43;;;29.90;68.80;;;;;;5066483;28;20689;-79
2022/09/10 11:26:28;;;;;;;7.15;4.15;;;30.00;68.70;;;;;;5073125;28;20708;-77
2022/09/10 11:29:21;;;;;;;7.40;4.25;;;30.00;67.90;;;;;;5074368;28;20244;-77
2022/09/10 11:31:58;;;;;;;12.60;5.82;;;30.00;67.30;;;;;;5063065;28;20191;-78
2022/09/10 11:34:34;;;;;;;15.05;5.82;;;30.10;67.10;;;;;;5059307;28;20260;-78
2022/09/10 11:37:14;;;;;;;7.85;4.05;;;30.20;67.30;;;;;;5073257;28;20681;-77
2022/09/10 11:39:47;;;;;;;7.22;3.40;;;30.20;66.50;;;;;;5074291;28;20585;-76
2022/09/10 11:42:21;;;;;;;10.23;5.30;;;30.20;65.90;;;;;;5073278;28;20268;-78
2022/09/10 11:44:58;;;;;;;10.38;3.97;;;30.20;66.40;;;;;;5068534;28;20208;-78
2022/09/10 11:47:31;;;;;;;8.63;4.80;;;30.20;66.70;;;;;;5073082;28;20229;-77
2022/09/10 11:50:06;;;;;;;8.85;3.95;;;30.30;66.70;;;;;;5071162;28;20190;-77
2022/09/10 11:52:35;;;;;;;8.38;4.20;;;30.30;66.80;;;;;;5071999;28;20194;-77
2022/09/10 11:55:07;;;;;;;13.68;4.03;;;30.30;66.80;;;;;;5070746;28;20277;-77
2022/09/10 11:57:43;;;;;;;8.82;4.40;;;30.30;66.70;;;;;;5070515;28;20198;-78
2022/09/10 12:00:15;;;;;;;8.40;3.55;;;30.30;66.80;;;;;;5054259;28;20256;-77
2022/09/10 12:03:08;;;;;;;7.72;3.80;;;30.40;66.80;;;;;;5053371;28;20559;-76
2022/09/10 12:05:47;;;;;;;5.93;3.95;;;30.30;66.20;;;;;;5058938;28;20221;-76
2022/09/10 12:08:28;;;;;;;8.45;4.03;;;30.40;66.40;;;;;;5072671;28;20190;-78
2022/09/10 12:11:08;;;;;;;8.50;6.05;;;30.40;66.30;;;;;;5074287;28;20190;-78
2022/09/10 12:13:38;;;;;;;10.27;3.90;;;30.40;66.40;;;;;;5073574;28;20190;-76
2022/09/10 12:16:21;;;;;;;8.98;4.88;;;30.40;67.00;;;;;;5070919;28;20198;-76
2022/09/10 12:18:51;;;;;;;6.90;4.03;;;30.40;66.10;;;;;;5072078;28;20190;-77
2022/09/10 12:21:32;;;;;;;6.35;3.95;;;30.40;66.20;;;;;;5071866;28;20264;-77
2022/09/10 12:24:03;;;;;;;8.77;4.15;;;30.40;65.90;;;;;;5072228;28;20244;-76
2022/09/10 12:26:42;;;;;;;6.47;4.20;;;30.40;65.90;;;;;;5069881;28;20230;-77
2022/09/10 12:29:33;;;;;;;8.73;3.55;;;30.40;66.90;;;;;;5073716;28;20186;-77
2022/09/10 12:32:28;;;;;;;8.00;3.75;;;30.40;66.20;;;;;;5070575;28;20190;-76
2022/09/10 12:35:45;;;;;;;9.73;3.80;;;30.40;66.20;;;;;;5070626;28;20222;-76
2022/09/10 12:39:16;;;;;;;8.55;3.88;;;30.50;66.40;;;;;;5069898;28;20366;-78
2022/09/10 12:41:58;;;;;;;8.70;3.83;;;30.40;66.10;;;;;;5052747;28;20223;-77
2022/09/10 12:44:44;;;;;;;7.50;4.10;;;30.40;66.30;;;;;;5052284;28;20231;-77
2022/09/10 12:47:51;;;;;;;9.18;4.03;;;30.40;66.40;;;;;;5063353;28;20323;-77
2022/09/10 12:50:29;;;;;;;8.88;4.22;;;30.50;66.90;;;;;;5060160;28;20290;-76
2022/09/10 12:53:31;;;;;;;9.07;3.67;;;30.40;66.60;;;;;;5069353;28;20190;-78
2022/09/10 12:56:17;;;;;;;8.43;4.63;;;30.40;66.30;;;;;;5069749;28;20268;-79
2022/09/10 12:59:02;;;;;;;7.65;3.50;;;30.40;65.90;;;;;;5067986;28;20708;-77
2022/09/10 13:01:40;;;;;;;7.28;4.10;;;30.50;66.20;;;;;;5068226;28;20249;-79
2022/09/10 13:04:23;;;;;;;6.75;3.67;;;30.50;66.50;;;;;;5067193;28;20190;-78
2022/09/10 13:06:55;;;;;;;9.75;4.50;;;30.60;66.60;;;;;;5067208;28;20267;-77
2022/09/10 13:09:27;;;;;;;11.70;3.83;;;30.60;66.40;;;;;;5065782;28;20187;-76
2022/09/10 13:12:03;;;;;;;9.75;3.67;;;30.60;66.20;;;;;;5061263;28;20195;-79
2022/09/10 13:14:37;;;;;;;7.75;4.10;;;30.70;66.20;;;;;;5072809;28;20204;-77
2022/09/10 13:17:06;;;;;;;6.18;3.78;;;30.80;66.40;;;;;;5036043;28;20195;-77